createdAt,value
2023-01-31T07:13:02.215Z,491.3
2023-01-31T07:14:00.835Z,522.2
2023-01-31T07:16:01.032Z,597.8
2023-01-31T07:17:00.822Z,635.6
2023-01-31T07:18:06.034Z,658.4
2023-01-31T07:19:00.833Z,681.2
2023-01-31T07:20:01.879Z,716.0
2023-01-31T07:21:01.088Z,750.8
2023-01-31T07:22:00.830Z,785.6
2023-01-31T07:23:06.830Z,838.5
2023-01-31T07:24:00.827Z,891.3
2023-01-31T07:25:01.105Z,1018.5
2023-01-31T07:26:00.829Z,1145.6
2023-01-31T07:27:00.831Z,1272.7
2023-01-31T07:28:01.035Z,1358.8
2023-01-31T07:29:01.095Z,1444.9
2023-01-31T07:30:01.690Z,1555.2
2023-01-31T07:31:00.893Z,1665.5
2023-01-31T07:32:00.895Z,1775.9
2023-01-31T07:33:01.039Z,1913.8
2023-01-31T07:34:00.824Z,2051.7
2023-01-31T07:36:00.832Z,2303.9
2023-01-31T07:37:00.830Z,2429.9
2023-01-31T07:38:01.054Z,2564.9
2023-01-31T07:39:00.832Z,2699.8
2023-01-31T07:40:00.878Z,2753.5
2023-01-31T07:41:00.859Z,2807.3
2023-01-31T07:42:00.835Z,2861.0
2023-01-31T07:43:01.034Z,2982.3
2023-01-31T07:44:00.827Z,3103.7
2023-01-31T07:45:24.007Z,3237.5
2023-01-31T07:46:00.851Z,3371.3
2023-01-31T07:47:00.853Z,3505.1
2023-01-31T07:48:01.335Z,3920.3
2023-01-31T07:49:00.838Z,4335.5
2023-01-31T07:50:00.847Z,4407.5
2023-01-31T07:51:00.886Z,4479.5
2023-01-31T07:52:00.836Z,4551.5
2023-01-31T07:53:01.882Z,4690.2
2023-01-31T07:54:00.827Z,4828.9
2023-01-31T07:56:00.830Z,5176.1
2023-01-31T07:57:00.845Z,5349.7
2023-01-31T07:58:01.039Z,5445.9
2023-01-31T07:59:01.928Z,5542.0
2023-01-31T08:01:00.917Z,5678.3
2023-01-31T08:02:00.856Z,5746.4
2023-01-31T08:03:01.039Z,5640.3
2023-01-31T08:04:14.456Z,5534.1
2023-01-31T08:05:01.923Z,5725.8
2023-01-31T08:06:00.878Z,5917.5
2023-01-31T08:07:05.837Z,6109.1
2023-01-31T08:08:01.039Z,6306.1
2023-01-31T08:09:00.841Z,6503.0
2023-01-31T08:10:00.854Z,6923.1
2023-01-31T08:11:01.086Z,7343.3
2023-01-31T08:12:00.854Z,7763.4
2023-01-31T08:13:01.037Z,7827.2
2023-01-31T08:14:00.837Z,7891.0
2023-01-31T08:16:00.850Z,7803.1
2023-01-31T08:17:01.173Z,7759.2
2023-01-31T08:18:02.869Z,7804.2
2023-01-31T08:19:00.851Z,7849.2
2023-01-31T08:20:01.413Z,7938.1
2023-01-31T08:21:00.902Z,8027.1
2023-01-31T08:22:00.843Z,8116.0
2023-01-31T08:23:01.043Z,8063.9
2023-01-31T08:24:00.831Z,8011.7
2023-01-31T08:25:00.842Z,7797.6
2023-01-31T08:26:00.831Z,7583.5
2023-01-31T08:27:00.836Z,7369.3
2023-01-31T08:28:01.823Z,7814.0
2023-01-31T08:29:00.841Z,8258.7
2023-01-31T08:30:01.470Z,8661.5
2023-01-31T08:31:08.469Z,9064.3
2023-01-31T08:32:00.962Z,9467.1
2023-01-31T08:33:01.072Z,9692.1
2023-01-31T08:34:00.855Z,9917.1
2023-01-31T08:35:00.842Z,10161.9
2023-01-31T08:36:00.895Z,10406.7
2023-01-31T08:37:00.847Z,10651.5
2023-01-31T08:38:15.580Z,11112.3
2023-01-31T08:39:00.950Z,11573.1
2023-01-31T08:40:00.865Z,12006.4
2023-01-31T08:41:00.835Z,12439.7
2023-01-31T08:42:00.842Z,12873.1
2023-01-31T08:43:01.945Z,12878.9
2023-01-31T08:44:02.836Z,12884.7
2023-01-31T08:46:00.842Z,12883.5
2023-01-31T08:47:00.971Z,12882.9
2023-01-31T08:48:01.075Z,12927.4
2023-01-31T08:49:00.877Z,12971.9
2023-01-31T08:50:00.852Z,12966.1
2023-01-31T08:51:00.960Z,12960.3
2023-01-31T08:52:00.855Z,12954.5
2023-01-31T08:53:01.953Z,12696.7
2023-01-31T08:54:00.856Z,12438.9
2023-01-31T08:55:00.852Z,12028.2
2023-01-31T08:56:00.842Z,11617.5
2023-01-31T08:57:00.845Z,11206.7
2023-01-31T08:58:15.856Z,11154.1
2023-01-31T08:59:01.099Z,11101.5
2023-01-31T09:01:00.857Z,11183.8
2023-01-31T09:02:00.878Z,11224.9
2023-01-31T09:03:00.958Z,11137.1
2023-01-31T09:04:03.056Z,11049.3
2023-01-31T09:06:00.840Z,10907.1
2023-01-31T09:07:00.843Z,10835.9
2023-01-31T09:08:00.847Z,11037.0
2023-01-31T09:09:01.053Z,11238.1
2023-01-31T09:10:00.878Z,11788.2
2023-01-31T09:11:00.886Z,12338.3
2023-01-31T09:12:00.844Z,12888.5
2023-01-31T09:13:00.879Z,12948.6
2023-01-31T09:14:01.057Z,13008.7
2023-01-31T09:16:00.980Z,12809.7
2023-01-31T09:17:00.908Z,12710.1
2023-01-31T09:18:00.858Z,12698.6
2023-01-31T09:19:01.293Z,12687.1
2023-01-31T09:20:01.493Z,12813.3
2023-01-31T09:21:00.927Z,12939.5
2023-01-31T09:22:01.114Z,13065.7
2023-01-31T09:23:00.866Z,12956.7
2023-01-31T09:24:01.331Z,12847.8
2023-01-31T09:25:00.891Z,12529.7
2023-01-31T09:26:00.850Z,12211.7
2023-01-31T09:27:01.105Z,11893.6
2023-01-31T09:28:01.111Z,12004.0
2023-01-31T09:29:01.072Z,12114.4
2023-01-31T09:30:01.520Z,12392.1
2023-01-31T09:31:00.963Z,12669.9
2023-01-31T09:32:00.932Z,12947.6
2023-01-31T09:33:00.886Z,13300.7
2023-01-31T09:34:07.671Z,13653.7
2023-01-31T09:35:01.717Z,13796.2
2023-01-31T09:36:01.117Z,13938.7
2023-01-31T09:37:00.875Z,14081.1
2023-01-31T09:38:00.859Z,14340.1
2023-01-31T09:39:02.016Z,14599.1
2023-01-31T09:40:00.906Z,14695.8
2023-01-31T09:41:01.132Z,14792.5
2023-01-31T09:42:00.851Z,14889.1
2023-01-31T09:43:00.855Z,15447.9
2023-01-31T09:44:02.594Z,16006.7
2023-01-31T09:46:00.867Z,17082.9
2023-01-31T09:47:00.908Z,17620.9
2023-01-31T09:48:00.856Z,18451.6
2023-01-31T09:49:01.935Z,19282.3
2023-01-31T09:50:01.635Z,20187.1
2023-01-31T09:51:00.867Z,21092.0
2023-01-31T09:52:00.855Z,21996.9
2023-01-31T09:53:00.895Z,22509.7
2023-01-31T09:54:01.059Z,23022.5
2023-01-31T09:55:00.892Z,23119.5
2023-01-31T09:56:00.925Z,23216.6
2023-01-31T09:57:00.923Z,23313.7
2023-01-31T09:58:00.864Z,22427.2
2023-01-31T09:59:02.145Z,21540.7
2023-01-31T10:00:01.586Z,20543.7
2023-01-31T10:01:00.892Z,19546.6
2023-01-31T10:02:00.868Z,18549.5
2023-01-31T10:03:00.916Z,17248.4
2023-01-31T10:04:01.123Z,15947.3
2023-01-31T10:05:00.882Z,14872.7
2023-01-31T10:06:00.852Z,13798.1
2023-01-31T10:07:00.860Z,12723.5
2023-01-31T10:08:00.855Z,12292.1
2023-01-31T10:09:02.116Z,11860.8
2023-01-31T10:11:01.042Z,12113.6
2023-01-31T10:12:01.122Z,12240.0
2023-01-31T10:13:00.868Z,12702.8
2023-01-31T10:14:01.066Z,13165.6
2023-01-31T10:15:01.757Z,13835.6
2023-01-31T10:16:00.892Z,14505.6
2023-01-31T10:17:00.873Z,15175.6
2023-01-31T10:18:01.122Z,15981.7
2023-01-31T10:19:01.074Z,16787.7
2023-01-31T10:20:01.141Z,17779.0
2023-01-31T10:21:00.922Z,18770.3
2023-01-31T10:22:00.877Z,19761.5
2023-01-31T10:23:00.880Z,20089.0
2023-01-31T10:24:01.073Z,20416.5
2023-01-31T10:26:00.860Z,21976.7
2023-01-31T10:27:01.032Z,22756.9
2023-01-31T10:28:00.867Z,23574.3
2023-01-31T10:29:01.063Z,24391.7
2023-01-31T10:31:00.915Z,25836.9
2023-01-31T10:32:00.930Z,26559.5
2023-01-31T10:33:00.864Z,26680.5
2023-01-31T10:34:01.074Z,26801.5
2023-01-31T10:36:00.866Z,26572.5
2023-01-31T10:37:00.886Z,26458.1
2023-01-31T10:38:01.130Z,26296.1
2023-01-31T10:39:02.037Z,26134.1
2023-01-31T10:40:00.901Z,25490.1
2023-01-31T10:41:05.918Z,24846.1
2023-01-31T10:42:00.867Z,24202.1
2023-01-31T10:43:00.868Z,23707.3
2023-01-31T10:44:01.817Z,23212.6
2023-01-31T10:45:01.493Z,22925.8
2023-01-31T10:46:00.951Z,22639.0
2023-01-31T10:47:00.896Z,22352.2
2023-01-31T10:48:00.867Z,22451.5
2023-01-31T10:49:01.096Z,22550.7
2023-01-31T10:50:01.589Z,22488.2
2023-01-31T10:51:00.875Z,22425.7
2023-01-31T10:52:00.872Z,22363.1
2023-01-31T10:53:00.876Z,22791.1
2023-01-31T10:54:01.905Z,23219.0
2023-01-31T10:55:00.883Z,23582.5
2023-01-31T10:56:01.410Z,23946.1
2023-01-31T10:57:01.459Z,24309.6
2023-01-31T10:58:01.509Z,24782.5
2023-01-31T10:59:01.410Z,25255.3
2023-01-31T11:00:02.788Z,25714.9
2023-01-31T11:01:00.878Z,26174.5
2023-01-31T11:02:00.958Z,26634.1
2023-01-31T11:03:00.870Z,26629.9
2023-01-31T11:04:01.084Z,26625.6
2023-01-31T11:05:00.896Z,26390.9
2023-01-31T11:06:00.883Z,26156.3
2023-01-31T11:07:00.881Z,25921.6
2023-01-31T11:08:00.876Z,25274.1
2023-01-31T11:09:01.100Z,24626.5
2023-01-31T11:11:01.085Z,23797.9
2023-01-31T11:12:00.885Z,23383.5
2023-01-31T11:13:01.174Z,23464.3
2023-01-31T11:14:15.895Z,23545.0
2023-01-31T11:15:02.272Z,24215.0
2023-01-31T11:16:00.999Z,24885.0
2023-01-31T11:17:00.884Z,25555.0
2023-01-31T11:38:00.848Z,49610.0
2023-01-31T11:39:00.847Z,52073.6
2023-01-31T11:40:06.259Z,50898.5
2023-01-31T11:41:00.848Z,50059.1
2023-01-31T11:42:00.846Z,49429.6
2023-01-31T11:43:00.836Z,49006.3
2023-01-31T11:44:00.903Z,48667.7
2023-01-31T11:45:02.945Z,47591.9
2023-01-31T11:46:00.938Z,46695.4
2023-01-31T11:47:00.843Z,45936.8
2023-01-31T11:48:00.849Z,45378.4
2023-01-31T11:49:00.845Z,44894.3
2023-01-31T11:50:03.797Z,44670.9
2023-01-31T11:51:00.888Z,44447.4
2023-01-31T11:52:00.869Z,44223.9
2023-01-31T11:53:00.858Z,41626.0
2023-01-31T11:54:01.111Z,39028.1
2023-01-31T11:55:01.068Z,38411.8
2023-01-31T11:56:00.880Z,37795.5
2023-01-31T11:57:00.859Z,37179.3
2023-01-31T11:58:00.868Z,36561.7
2023-01-31T11:59:00.842Z,35944.1
2023-01-31T12:01:01.873Z,36079.3
2023-01-31T12:02:00.898Z,36146.9
2023-01-31T12:03:00.843Z,36452.5
2023-01-31T12:04:04.065Z,36758.1
2023-01-31T12:06:00.849Z,35143.7
2023-01-31T12:07:01.285Z,34336.5
2023-01-31T12:08:00.860Z,34221.8
2023-01-31T12:09:01.265Z,34107.1
2023-01-31T12:10:01.318Z,33440.9
2023-01-31T12:11:00.855Z,32774.6
2023-01-31T12:12:01.125Z,32108.3
2023-01-31T12:13:12.507Z,31537.6
2023-01-31T12:14:00.828Z,30966.9
2023-01-31T12:15:02.337Z,30446.5
2023-01-31T12:16:00.860Z,29926.2
2023-01-31T12:17:00.871Z,29405.9
2023-01-31T12:18:00.860Z,29787.9
2023-01-31T12:19:00.864Z,30169.9
2023-01-31T12:20:01.961Z,31754.9
2023-01-31T12:21:00.855Z,33340.0
2023-01-31T12:22:00.881Z,34925.1
2023-01-31T12:23:00.923Z,37139.3
2023-01-31T12:24:00.849Z,39353.6
2023-01-31T12:25:01.076Z,41316.1
2023-01-31T12:26:00.855Z,43278.5
2023-01-31T12:27:00.852Z,45241.0
2023-01-31T12:28:00.859Z,45943.7
2023-01-31T12:29:00.864Z,46646.5
2023-01-31T12:31:00.966Z,47037.0
2023-01-31T12:32:00.858Z,47232.3
2023-01-31T12:33:00.872Z,45629.3
2023-01-31T12:34:00.871Z,44026.3
2023-01-31T12:35:05.236Z,41900.8
2023-01-31T12:36:01.163Z,39775.3
2023-01-31T12:37:00.857Z,37649.9
2023-01-31T12:38:00.866Z,36519.7
2023-01-31T12:39:00.880Z,35389.5
2023-01-31T12:40:24.944Z,32750.2
2023-01-31T12:41:00.879Z,30110.9
2023-01-31T12:42:01.152Z,27471.7
2023-01-31T12:43:00.875Z,26121.8
2023-01-31T12:44:00.854Z,24771.9
2023-01-31T12:45:03.147Z,24905.0
2023-01-31T12:46:02.777Z,25038.1
2023-01-31T12:47:10.338Z,25171.1
2023-01-31T12:48:00.861Z,25355.5
2023-01-31T12:49:00.866Z,25539.8
2023-01-31T12:50:01.409Z,26229.9
2023-01-31T12:51:00.862Z,26919.9
2023-01-31T12:52:00.928Z,27610.0
2023-01-31T12:53:00.861Z,26162.7
2023-01-31T12:54:00.863Z,24715.5
2023-01-31T12:55:02.002Z,25030.6
2023-01-31T12:56:01.236Z,25345.7
2023-01-31T12:57:00.862Z,25660.9
2023-01-31T12:58:05.874Z,25707.6
2023-01-31T12:59:15.265Z,25754.3
2023-01-31T13:01:00.863Z,27591.5
2023-01-31T13:02:00.887Z,28510.1
2023-01-31T13:03:00.922Z,29997.8
2023-01-31T13:04:01.884Z,31485.5
2023-01-31T13:05:01.812Z,32803.4
2023-01-31T13:06:00.918Z,34121.3
2023-01-31T13:07:00.900Z,35439.3
2023-01-31T13:08:00.856Z,38629.9
2023-01-31T13:09:07.994Z,41820.5
2023-01-31T13:10:01.098Z,44832.1
2023-01-31T13:11:00.884Z,47843.8
2023-01-31T13:12:01.764Z,50855.5
2023-01-31T13:13:00.883Z,53971.9
2023-01-31T13:14:00.867Z,57088.3
2023-01-31T13:16:00.939Z,58358.7
2023-01-31T13:17:00.877Z,58993.9
2023-01-31T13:18:00.865Z,58976.7
2023-01-31T13:35:02.663Z,26475.0
2023-01-31T13:38:00.747Z,27233.8
2023-01-31T13:39:00.762Z,27689.0
2023-01-31T13:40:01.046Z,28208.8
2023-01-31T13:41:01.035Z,28580.1
2023-01-31T13:42:00.766Z,28858.6
2023-01-31T13:43:00.773Z,28597.9
2023-01-31T13:44:00.762Z,28389.3
2023-01-31T13:46:00.763Z,26309.4
2023-01-31T13:47:00.751Z,25509.5
2023-01-31T13:48:00.745Z,25337.1
2023-01-31T13:49:00.781Z,25187.8
2023-01-31T13:50:01.915Z,24728.2
2023-01-31T13:51:00.764Z,24268.6
2023-01-31T13:52:00.992Z,23809.0
2023-01-31T13:53:00.743Z,23428.2
2023-01-31T13:54:01.001Z,23047.4
2023-01-31T13:55:02.249Z,22185.1
2023-01-31T13:56:01.002Z,21322.9
2023-01-31T13:57:00.758Z,20460.6
2023-01-31T13:58:00.771Z,19884.6
2023-01-31T13:59:00.751Z,19308.6
2023-01-31T14:00:18.780Z,19785.1
2023-01-31T14:01:01.003Z,20261.7
2023-01-31T14:02:00.861Z,20738.2
2023-01-31T14:03:00.859Z,20213.3
2023-01-31T14:25:01.650Z,47672.0
2023-01-31T14:28:00.323Z,44246.8
2023-01-31T14:29:00.235Z,42191.6
2023-01-31T14:30:01.640Z,40620.8
2023-01-31T14:31:00.252Z,39498.9
2023-01-31T14:32:00.257Z,38657.4
2023-01-31T14:33:00.267Z,37085.1
2023-01-31T14:34:00.247Z,35827.3
2023-01-31T14:35:01.149Z,33978.9
2023-01-31T14:36:01.260Z,32438.6
2023-01-31T14:37:00.519Z,31135.2
2023-01-31T14:38:00.268Z,29712.0
2023-01-31T14:39:00.513Z,28478.5
2023-01-31T14:40:00.457Z,25911.0
2023-01-31T14:41:01.282Z,23343.5
2023-01-31T14:42:00.240Z,20775.9
2023-01-31T14:43:00.282Z,19185.5
2023-01-31T14:44:01.260Z,17595.0
2023-01-31T14:45:01.123Z,15914.4
2023-01-31T14:46:00.251Z,14233.8
2023-01-31T14:47:05.170Z,12553.2
2023-01-31T14:48:01.375Z,12347.8
2023-01-31T14:49:00.238Z,12142.4
2023-01-31T14:50:00.465Z,12227.3
2023-01-31T14:51:00.234Z,12312.3
2023-01-31T14:52:00.234Z,12397.2
2023-01-31T14:53:00.303Z,13310.0
2023-01-31T14:54:00.522Z,14222.8
2023-01-31T14:55:02.114Z,14495.7
2023-01-31T14:56:00.375Z,14768.7
2023-01-31T14:57:00.270Z,15041.6
2023-01-31T14:58:00.268Z,15340.4
2023-01-31T14:59:01.673Z,15639.2
2023-01-31T15:00:01.464Z,15800.8
2023-01-31T15:01:00.356Z,15962.4
2023-01-31T15:02:00.532Z,16124.0
2023-01-31T15:03:00.450Z,15405.2
2023-01-31T15:04:00.235Z,14686.4
2023-01-31T15:05:06.502Z,14246.1
2023-01-31T15:06:00.248Z,13805.9
2023-01-31T15:07:00.239Z,13365.6
2023-01-31T15:08:00.300Z,12432.3
2023-01-31T15:09:00.252Z,11499.1
2023-01-31T15:10:00.578Z,11262.9
2023-01-31T15:11:00.249Z,11026.8
2023-01-31T15:12:00.242Z,10790.7
2023-01-31T15:13:00.523Z,10514.7
2023-01-31T15:14:00.249Z,10238.8
2023-01-31T15:15:01.174Z,10258.0
2023-01-31T15:16:00.254Z,10277.2
2023-01-31T15:17:00.236Z,10296.4
2023-01-31T15:18:00.283Z,10590.7
2023-01-31T15:19:00.242Z,10885.1
2023-01-31T15:20:00.453Z,11105.4
2023-01-31T15:21:01.472Z,11325.7
2023-01-31T15:22:00.240Z,11546.1
2023-01-31T15:23:00.277Z,11533.8
2023-01-31T15:24:00.247Z,11521.5
2023-01-31T15:25:00.472Z,11485.3
2023-01-31T15:26:00.247Z,11449.1
2023-01-31T15:27:00.259Z,11412.9
2023-01-31T15:28:01.351Z,11299.7
2023-01-31T15:29:00.278Z,11186.5
2023-01-31T15:30:30.894Z,11040.1
2023-01-31T15:31:02.035Z,10893.6
2023-01-31T15:32:05.913Z,10747.1
2023-01-31T15:33:00.293Z,10378.3
